ART weather

Watertown International Airport
Watertown, New York, United States

Public forecast

Using degrees Fahrenheit for public forecast. Weather courtesy of forecast.io.

Current aviation weather report (METAR) for Watertown International Airport

Retrieved 2020/04/08 10:56 UTC (32 minutes ago):

KART 081056Z AUTO 02005KT 10SM OVC050 07/02 A2959 RMK AO2 SLP022 T00670022

Aviation forecast (TAF) for Watertown International Airport

Retrieved 2020/04/08 06:42 UTC (5 hours ago):

TAF KART 080540Z 0806/0906 VRB03KT P6SM -SHRA OVC040 FM080700 04006KT P6SM OVC040 FM082100 24006KT P6SM BKN050 FM090300 21007KT P6SM BKN025 FM090500 19006KT P6SM BKN015